Flight Track Log - Related Links

Times and Time Zones

All times are in EDT time to prevent confusion due to time zone crossing. See the UAL33 flight status page for this flight to view local times or setup timezone preferences in your user account.

Time Position Orientation Groundspeed Altitude Reporting Facility
EDT Latitude Longitude Course Direction KTS MPH feet Rate Location/Type
Wed 03:21:23 PM 33.9356 -118.4331 51° Northeast 174 200 1,500  Level Los Angeles Center
Wed 03:22:25 PM 33.9192 -118.5128 256° West 227 261 4,100 2,468 Climbing Los Angeles Center
Wed 03:23:00 PM 34.1387 -118.0559 59° Northeast  Level FlightAware Approximate
Wed 03:23:27 PM 33.8625 -118.5528 210° Southwest 264 304 6,600  Level Los Angeles Center
Wed 03:24:00 PM 34.2082 -117.9171 59° Northeast  Level FlightAware Approximate
Wed 03:24:29 PM 33.8425 -118.4753 107° East 281 323 9,700  Level Los Angeles Center
Wed 03:25:00 PM 34.2833 -117.7968 90° East  Level FlightAware Approximate
Wed 03:25:31 PM 33.9178 -118.4383 22° Northeast 309 356 11,600  Level Los Angeles Center
Wed 03:26:00 PM 34.3537 -117.6612 51° Northeast  Level FlightAware Approximate
Wed 03:26:33 PM 33.9800 -118.3528 49° Northeast 339 390 14,000  Level Los Angeles Center
Wed 03:27:35 PM 34.0375 -118.2486 56° Northeast 366 421 16,600 2,419 Climbing Los Angeles Center
Wed 03:28:37 PM 34.0981 -118.1408 56° Northeast 382 440 19,000 2,160 Climbing Los Angeles Center
Wed 03:29:40 PM 34.1617 -118.0289 56° Northeast 400 460 21,100 1,920 Climbing Los Angeles Center
Wed 03:30:42 PM 34.2422 -117.8856 56° Northeast 425 489 23,000 1,065 Climbing Los Angeles Center
Wed 03:31:44 PM 34.3117 -117.7606 56° Northeast 443 510 23,300 1,113 Climbing Los Angeles Center
Wed 03:32:46 PM 34.3814 -117.6372 56° Northeast 445 512 25,300 1,984 Climbing Los Angeles Center
Wed 03:33:48 PM 34.4547 -117.5033 56° Northeast 452 520 27,400 1,839 Climbing Los Angeles Center
Wed 03:34:50 PM 34.5367 -117.3858 50° Northeast 460 529 29,100 1,548 Climbing Los Angeles Center
Wed 03:35:52 PM 34.6222 -117.2681 49° Northeast 467 537 30,600 1,548 Climbing Los Angeles Center
Wed 03:36:54 PM 34.7061 -117.1475 50° Northeast 471 542 32,300 1,824 Climbing Los Angeles Center
Wed 03:37:57 PM 34.8058 -117.0031 50° Northeast 468 539 34,400 1,632 Climbing Los Angeles Center
Wed 03:38:59 PM 34.8889 -116.8825 50° Northeast 467 537 35,700 1,065 Climbing Los Angeles Center
Wed 03:40:01 PM 34.9733 -116.7619 49° Northeast 472 543 36,600 629 Climbing Los Angeles Center
Wed 03:41:03 PM 35.0594 -116.6369 50° Northeast 479 551 37,000 194 Climbing Los Angeles Center
Wed 03:42:05 PM 35.1458 -116.5125 50° Northeast 483 556 37,000  Level Los Angeles Center
Wed 03:43:07 PM 35.2503 -116.3689 48° Northeast 474 545 37,000  Level Los Angeles Center
Wed 03:44:09 PM 35.3333 -116.2483 50° Northeast 467 537 37,000  Level Los Angeles Center
Wed 03:45:11 PM 35.4158 -116.1264 50° Northeast 465 535 37,000  Level Los Angeles Center
Wed 03:46:13 PM 35.5014 -116.0053 49° Northeast 471 542 37,000  Level Los Angeles Center
Wed 03:47:16 PM 35.5933 -115.8739 49° Northeast 474 545 37,000  Level Los Angeles Center
Wed 03:48:18 PM 35.6783 -115.7497 50° Northeast 477 549 37,000  Level Los Angeles Center
Wed 03:49:20 PM 35.7642 -115.6244 50° Northeast 481 554 37,000  Level Los Angeles Center
Wed 03:50:22 PM 35.8672 -115.4742 50° Northeast 482 555 37,000  Level Los Angeles Center
Wed 03:51:24 PM 35.9531 -115.3475 50° Northeast 486 559 37,000  Level Los Angeles Center
Wed 03:52:26 PM 36.0378 -115.2225 50° Northeast 480 552 37,000  Level Los Angeles Center
Wed 03:53:28 PM 36.1069 -115.0811 59° Northeast 485 558 37,000  Level Los Angeles Center
Wed 03:54:30 PM 36.1533 -114.9242 70° East 489 563 37,000  Level Los Angeles Center
Wed 03:55:33 PM 36.2097 -114.7356 70° East 490 564 37,000  Level Los Angeles Center
Wed 03:56:35 PM 36.2575 -114.5783 69° East 490 564 37,000  Level Los Angeles Center
Wed 03:57:37 PM 36.3067 -114.4206 69° East 492 566 37,000  Level Los Angeles Center
Wed 03:58:39 PM 36.3536 -114.2617 70° East 492 566 37,000  Level Los Angeles Center
Wed 03:59:41 PM 36.4014 -114.1036 69° East 491 565 37,000  Level Los Angeles Center
Wed 04:00:43 PM 36.4581 -113.9117 70° East 494 568 37,000  Level Los Angeles Center
Wed 04:01:45 PM 36.5081 -113.7444 70° East 494 568 37,000  Level Los Angeles Center
Wed 04:02:47 PM 36.5553 -113.5836 70° East 497 572 37,000  Level Los Angeles Center
Wed 04:03:49 PM 36.6025 -113.4228 70° East 498 573 37,000  Level Los Angeles Center
Wed 04:04:52 PM 36.6500 -113.2608 70° East 500 575 37,000  Level Los Angeles Center
Wed 04:06:00 PM 36.7029 -113.0756 70° East  Level FlightAware Approximate
Wed 04:06:56 PM 36.7436 -112.9344 70° East 503 579 37,000  Level Los Angeles Center
Wed 04:07:58 PM 36.8006 -112.7378 70° East 506 582 37,000  Level Los Angeles Center
Wed 04:09:00 PM 36.8461 -112.5725 71° East 507 583 37,000  Level Los Angeles Center
Wed 04:10:02 PM 36.8933 -112.4072 70° East 509 586 37,000  Level Los Angeles Center
Wed 04:11:04 PM 36.9392 -112.2417 71° East 508 585 37,000  Level Los Angeles Center
Wed 04:12:19 PM 37.0036 -112.0072 71° East 510 587 37,000  Level Los Angeles Center
Wed 04:12:36 PM 37.0150 -111.9725 68° East 512 589 37,000  Level Denver Center
Wed 04:13:37 PM 37.0619 -111.8039 71° East 515 593 37,000  Level Denver Center
Wed 04:14:39 PM 37.1078 -111.6353 71° East 515 593 37,000  Level Denver Center
Wed 04:15:41 PM 37.1533 -111.4656 71° East 516 594 37,000  Level Denver Center
Wed 04:16:43 PM 37.2094 -111.2606 71° East 520 598 37,000  Level Denver Center
Wed 04:17:45 PM 37.2553 -111.0897 71° East 520 598 37,000  Level Denver Center
Wed 04:18:47 PM 37.3006 -110.9192 71° East 518 596 37,000  Level Denver Center
Wed 04:19:49 PM 37.3464 -110.7464 71° East 523 602 37,000  Level Denver Center
Wed 04:20:51 PM 37.3914 -110.5750 72° East 520 598 37,000  Level Denver Center
Wed 04:21:53 PM 37.4369 -110.4017 72° East 521 600 37,000  Level Denver Center
Wed 04:23:07 PM 37.4892 -110.1953 72° East 520 598 37,000  Level Denver Center
Wed 04:24:09 PM 37.5450 -109.9797 72° East 524 603 37,000  Level Denver Center
Wed 04:25:11 PM 37.5878 -109.8139 72° East 520 598 37,000  Level Denver Center
Wed 04:26:13 PM 37.6311 -109.6461 72° East 523 602 37,000  Level Denver Center
Wed 04:27:14 PM 37.6794 -109.4503 73° East 525 604 37,000  Level Denver Center
Wed 04:28:16 PM 37.7219 -109.2822 72° East 525 604 37,000  Level Denver Center
Wed 04:29:18 PM 37.7708 -109.0833 73° East 530 610 37,000  Level Denver Center
Wed 04:30:20 PM 37.8128 -108.9119 73° East 531 611 37,000  Level Denver Center
Wed 04:31:22 PM 37.8561 -108.7108 75° East 531 611 37,000  Level Denver Center
Wed 04:32:36 PM 37.8919 -108.5375 75° East 532 612 37,000  Level Denver Center
Wed 04:33:50 PM 37.9406 -108.3081 75° East 530 610 37,000  Level Denver Center
Wed 04:34:52 PM 37.9894 -108.0761 75° East 533 613 37,000  Level Denver Center
Wed 04:35:54 PM 38.0250 -107.9014 75° East 534 615 37,000  Level Denver Center
Wed 04:37:08 PM 38.0614 -107.7272 75° East 534 615 37,000  Level Denver Center
Wed 04:38:10 PM 38.1094 -107.4867 76° East 534 615 37,000  Level Denver Center
Wed 04:39:12 PM 38.1447 -107.3108 76° East 537 618 37,000  Level Denver Center
Wed 04:40:14 PM 38.1797 -107.1328 76° East 538 619 37,000  Level Denver Center
Wed 04:41:16 PM 38.2236 -106.9125 76° East 537 618 37,000  Level Denver Center
Wed 04:42:18 PM 38.2603 -106.7225 76° East 540 621 37,000  Level Denver Center
Wed 04:43:20 PM 38.2947 -106.5436 76° East 543 625 37,000  Level Denver Center
Wed 04:44:21 PM 38.3308 -106.3539 76° East 542 624 37,000  Level Denver Center
Wed 04:45:23 PM 38.3672 -106.1681 76° East 543 625 37,000  Level Denver Center
Wed 04:46:25 PM 38.4017 -105.9800 77° East 545 627 37,000  Level Denver Center
Wed 04:47:27 PM 38.4386 -105.7831 76° East 544 626 37,000  Level Denver Center
Wed 04:48:29 PM 38.4786 -105.5631 77° East 544 626 37,000  Level Denver Center
Wed 04:49:31 PM 38.5142 -105.3747 76° East 543 625 37,000  Level Denver Center
Wed 04:50:32 PM 38.5483 -105.1850 77° East 544 626 37,000  Level Denver Center
Wed 04:51:34 PM 38.5822 -104.9956 77° East 544 626 37,000  Level Denver Center
Wed 04:52:36 PM 38.6158 -104.8039 77° East 550 633 37,000  Level Denver Center
Wed 04:53:38 PM 38.6497 -104.6106 77° East 554 638 37,000  Level Denver Center
Wed 04:54:40 PM 38.6833 -104.4178 77° East 555 639 37,000  Level Denver Center
Wed 04:55:42 PM 38.7217 -104.1936 78° East 552 635 37,000  Level Denver Center
Wed 04:56:44 PM 38.7547 -104.0025 77° East 549 632 37,000  Level Denver Center
Wed 04:57:45 PM 38.7883 -103.8083 77° East 553 636 37,000  Level Denver Center
Wed 04:58:47 PM 38.8158 -103.6164 80° East 549 632 37,000  Level Denver Center
Wed 04:59:49 PM 38.8233 -103.4169 87° East 554 638 37,000  Level Denver Center
Wed 05:00:51 PM 38.8281 -103.2164 88° East 559 643 37,000  Level Denver Center
Wed 05:01:53 PM 38.8319 -103.0153 89° East 560 644 37,000  Level Denver Center
Wed 05:02:55 PM 38.8358 -102.7814 89° East 559 643 37,000  Level Denver Center
Wed 05:03:57 PM 38.8381 -102.5922 89° East 561 646 37,000  Level Denver Center
Wed 05:04:58 PM 38.8431 -102.3692 88° East 562 647 37,000  Level Denver Center
Wed 05:06:00 PM 38.8453 -102.1767 89° East 563 648 37,000  Level Denver Center
Wed 05:07:02 PM 38.8467 -101.9853 89° East 562 647 37,000  Level Denver Center
Wed 05:08:04 PM 38.8497 -101.7603 89° East 563 648 37,000  Level Denver Center
Wed 05:09:06 PM 38.8508 -101.5700 90° East 558 642 37,000  Level Denver Center
Wed 05:10:07 PM 38.8533 -101.3461 89° East 559 643 37,000  Level Denver Center
Wed 05:11:09 PM 38.8544 -101.1553 90° East 558 642 37,000  Level Denver Center
Wed 05:12:11 PM 38.8544 -100.9308 90° East 563 648 37,000  Level Denver Center
Wed 05:13:13 PM 38.8550 -100.7414 90° East 556 640 37,000  Level Denver Center
Wed 05:14:15 PM 38.8558 -100.5503 90° East 558 642 37,000  Level Denver Center
Wed 05:15:16 PM 38.8553 -100.3294 90° East 554 638 37,000  Level Denver Center
Wed 05:16:18 PM 38.8539 -100.1406 90° East 552 635 37,000  Level Denver Center
Wed 05:17:20 PM 38.8536 -99.9186 90° East 554 638 37,000  Level Denver Center
Wed 05:18:22 PM 38.8528 -99.7300 90° East 553 636 37,000  Level Denver Center
Wed 05:19:24 PM 38.8494 -99.5089 91° East 554 638 37,000  Level Denver Center
Wed 05:20:26 PM 38.8483 -99.3206 90° East 553 636 37,000  Level Denver Center
Wed 05:21:24 PM 38.8531 -99.1464 88° East 556 640 37,000  Level Kansas City Center
Wed 05:22:26 PM 38.8644 -98.9486 86° East 555 639 37,000  Level Kansas City Center
Wed 05:23:29 PM 38.8744 -98.7497 86° East 558 642 37,000  Level Kansas City Center
Wed 05:24:31 PM 38.8858 -98.5106 86° East 559 643 37,000  Level Kansas City Center
Wed 05:25:32 PM 38.8956 -98.3114 86° East 557 641 37,000  Level Kansas City Center
Wed 05:26:36 PM 38.9042 -98.1119 87° East 557 641 37,000  Level Kansas City Center
Wed 05:27:37 PM 38.9136 -97.9111 86° East 561 646 37,000  Level Kansas City Center
Wed 05:28:40 PM 38.9225 -97.7031 87° East 558 642 37,000  Level Kansas City Center
Wed 05:29:42 PM 38.9436 -97.4886 83° East 558 642 37,000  Level Kansas City Center
Wed 05:30:43 PM 38.9669 -97.3167 80° East 556 640 37,000  Level Kansas City Center
Wed 05:31:47 PM 38.9989 -97.0789 80° East 551 634 37,000  Level Kansas City Center
Wed 05:32:47 PM 39.0242 -96.8925 80° East 552 635 37,000  Level Kansas City Center
Wed 05:33:48 PM 39.0531 -96.6731 80° East 556 640 37,000  Level Kansas City Center
Wed 05:34:52 PM 39.0772 -96.4850 81° East 556 640 37,000  Level Kansas City Center
Wed 05:35:52 PM 39.0992 -96.2975 81° East 555 639 37,000  Level Kansas City Center
Wed 05:36:56 PM 39.1269 -96.0783 81° East 556 640 37,000  Level Kansas City Center
Wed 05:37:56 PM 39.1500 -95.8900 81° East 556 640 37,000  Level Kansas City Center
Wed 05:39:00 PM 39.1772 -95.6703 81° East 560 644 37,000  Level Kansas City Center
Wed 05:40:01 PM 39.1992 -95.4833 81° East 552 635 37,000  Level Kansas City Center
Wed 05:41:04 PM 39.2258 -95.2550 81° East 554 638 37,000  Level Kansas City Center
Wed 05:42:05 PM 39.2475 -95.0617 82° East 552 635 37,000  Level Kansas City Center
Wed 05:43:08 PM 39.2689 -94.8761 81° East 550 633 37,000  Level Kansas City Center
Wed 05:44:09 PM 39.2931 -94.6603 82° East 545 627 37,000  Level Kansas City Center
Wed 05:45:13 PM 39.3200 -94.4736 79° East 549 632 37,000  Level Kansas City Center
Wed 05:46:14 PM 39.3483 -94.2556 80° East 551 634 37,000  Level Kansas City Center
Wed 05:47:15 PM 39.3719 -94.0689 81° East 549 632 37,000  Level Kansas City Center
Wed 05:48:18 PM 39.3992 -93.8511 81° East 549 632 37,000  Level Kansas City Center
Wed 05:49:19 PM 39.4217 -93.6867 80° East 552 635 37,000  Level Kansas City Center
Wed 05:50:22 PM 39.4500 -93.4550 81° East 549 632 37,000  Level Kansas City Center
Wed 05:51:23 PM 39.4728 -93.2617 81° East 550 633 37,000  Level Kansas City Center
Wed 05:52:27 PM 39.4961 -93.0686 81° East 550 633 37,000  Level Kansas City Center
Wed 05:53:27 PM 39.5172 -92.8700 82° East 559 643 37,000  Level Kansas City Center
Wed 05:54:31 PM 39.5433 -92.6411 82° East 548 631 37,000  Level Kansas City Center
Wed 05:55:32 PM 39.5653 -92.4478 82° East 548 631 37,000  Level Kansas City Center
Wed 05:56:36 PM 39.5864 -92.2578 82° East 546 628 37,000  Level Kansas City Center
Wed 05:57:36 PM 39.6072 -92.0661 82° East 545 627 37,000  Level Kansas City Center
Wed 05:58:40 PM 39.6286 -91.8714 82° East 546 628 37,000  Level Kansas City Center
Wed 05:59:41 PM 39.6514 -91.6392 83° East 550 633 37,000  Level Kansas City Center
Wed 06:00:42 PM 39.6725 -91.4458 82° East 547 629 37,000  Level Kansas City Center
Wed 06:01:44 PM 39.6925 -91.2411 83° East 549 632 37,000  Level Kansas City Center
Wed 06:02:48 PM 39.7133 -91.0433 82° East 551 634 37,000  Level Kansas City Center
Wed 06:03:48 PM 39.7325 -90.8461 83° East 551 634 37,000  Level Kansas City Center
Wed 06:04:52 PM 39.7525 -90.6289 83° East 550 633 37,000  Level Kansas City Center
Wed 06:05:53 PM 39.7711 -90.4319 83° East 553 636 37,000  Level Kansas City Center
Wed 06:06:54 PM 39.7897 -90.2347 83° East 552 635 37,000  Level Kansas City Center
Wed 06:07:57 PM 39.8081 -90.0369 83° East 554 638 37,000  Level Kansas City Center
Wed 06:08:58 PM 39.8283 -89.8008 84° East 553 636 37,000  Level Kansas City Center
Wed 06:10:02 PM 39.8394 -89.6036 86° East 550 633 37,000  Level Kansas City Center
Wed 06:11:01 PM 39.8419 -89.4061 89° East 552 635 37,000  Level Kansas City Center
Wed 06:12:05 PM 39.8414 -89.2103 90° East 547 629 37,000  Level Kansas City Center
Wed 06:13:07 PM 39.8417 -89.0139 90° East 545 627 37,000  Level Kansas City Center
Wed 06:14:08 PM 39.8419 -88.8169 90° East 547 629 37,000  Level Kansas City Center
Wed 06:15:11 PM 39.8422 -88.5811 90° East 546 628 37,000  Level Kansas City Center
Wed 06:16:14 PM 39.8431 -88.3842 90° East 546 628 37,000  Level Kansas City Center
Wed 06:17:15 PM 39.8431 -88.1706 90° East 548 631 37,000  Level Kansas City Center
Wed 06:17:38 PM 39.8383 -88.0958 95° East 545 627 37,000  Level Indianapolis Center
Wed 06:18:40 PM 39.8375 -87.8983 90° East 544 626 37,000  Level Indianapolis Center
Wed 06:19:42 PM 39.8372 -87.7022 90° East 542 624 37,000  Level Indianapolis Center
Wed 06:20:44 PM 39.8650 -87.5053 80° East 547 629 37,000  Level Indianapolis Center
Wed 06:21:58 PM 39.9119 -87.2461 77° East 548 631 37,000  Level Indianapolis Center
Wed 06:23:00 PM 39.9478 -87.0517 76° East 549 632 37,000  Level Indianapolis Center
Wed 06:24:02 PM 39.9831 -86.8553 77° East 551 634 37,000  Level Indianapolis Center
Wed 06:25:04 PM 40.0181 -86.6583 77° East 552 635 37,000  Level Indianapolis Center
Wed 06:26:06 PM 40.0547 -86.4608 76° East 551 634 37,000  Level Indianapolis Center
Wed 06:26:52 PM 40.0775 -86.3303 77° East 549 632 37,000  Level Chicago Center
Wed 06:27:54 PM 40.1178 -86.1003 77° East 550 633 37,000  Level Chicago Center
Wed 06:28:10 PM 40.1231 -86.0656 79° East 549 632 37,000  Level Indianapolis Center
Wed 06:28:56 PM 40.1514 -85.9036 77° East 548 631 37,000  Level Chicago Center
Wed 06:29:58 PM 40.1844 -85.7058 78° East 551 634 37,000  Level Chicago Center
Wed 06:31:00 PM 40.2194 -85.5100 77° East 547 629 37,000  Level Chicago Center
Wed 06:32:02 PM 40.2625 -85.3186 74° East 550 633 37,000  Level Chicago Center
Wed 06:32:18 PM 40.2833 -85.2581 66° East 544 626 37,000  Level Indianapolis Center
Wed 06:33:20 PM 40.3481 -85.0744 65° Northeast 550 633 37,000  Level Indianapolis Center
Wed 06:34:22 PM 40.4097 -84.8925 66° East 545 627 37,000  Level Indianapolis Center
Wed 06:35:24 PM 40.4781 -84.6933 66° East 545 627 37,000  Level Indianapolis Center
Wed 06:36:27 PM 40.5400 -84.5103 66° East 543 625 37,000  Level Indianapolis Center
Wed 06:37:29 PM 40.6011 -84.3261 66° East 544 626 37,000  Level Indianapolis Center
Wed 06:38:31 PM 40.6625 -84.1428 66° East 542 624 37,000  Level Indianapolis Center
Wed 06:39:33 PM 40.7231 -83.9594 66° East 540 621 37,000  Level Indianapolis Center
Wed 06:40:35 PM 40.7844 -83.7750 66° East 541 623 37,000  Level Indianapolis Center
Wed 06:41:37 PM 40.8447 -83.5914 66° East 539 620 37,000  Level Indianapolis Center
Wed 06:42:39 PM 40.9100 -83.3883 67° East 541 623 37,000  Level Indianapolis Center
Wed 06:43:41 PM 40.9692 -83.2053 67° East 538 619 37,000  Level Indianapolis Center
Wed 06:44:43 PM 41.0289 -83.0197 67° East 543 625 37,000  Level Indianapolis Center
Wed 06:45:51 PM 41.0881 -82.7981 70° East 534 615 37,000  Level Cleveland Center
Wed 06:46:50 PM 41.1250 -82.6036 76° East 534 615 37,000  Level Cleveland Center
Wed 06:47:50 PM 41.1594 -82.4144 76° East 529 609 37,000  Level Cleveland Center
Wed 06:48:50 PM 41.1936 -82.2222 77° East 529 609 37,000  Level Cleveland Center
Wed 06:49:50 PM 41.2275 -82.0297 77° East 524 603 37,000  Level Cleveland Center
Wed 06:50:50 PM 41.2608 -81.8428 77° East 524 603 37,000  Level Cleveland Center
Wed 06:51:50 PM 41.2919 -81.6525 78° East 524 603 37,000  Level Cleveland Center
Wed 06:52:50 PM 41.3250 -81.4622 77° East 524 603 37,000  Level Cleveland Center
Wed 06:53:50 PM 41.3533 -81.2719 79° East 524 603 37,000  Level Cleveland Center
Wed 06:54:50 PM 41.3836 -81.0839 78° East 524 603 37,000  Level Cleveland Center
Wed 06:55:50 PM 41.4156 -80.8933 77° East 524 603 37,000  Level Cleveland Center
Wed 06:56:50 PM 41.4472 -80.7022 77° East 524 603 37,000  Level Cleveland Center
Wed 06:57:50 PM 41.4764 -80.5111 78° East 524 603 37,000  Level Cleveland Center
Wed 06:59:00 PM 41.5024 -80.2988 81° East  Level FlightAware Approximate
Wed 06:59:50 PM 41.5339 -80.1561 81° East 524 603 37,000  Level Cleveland Center
Wed 07:00:50 PM 41.5642 -79.9478 79° East 519 597 37,000  Level Cleveland Center
Wed 07:01:50 PM 41.5922 -79.7614 79° East 519 597 37,000  Level Cleveland Center
Wed 07:02:50 PM 41.6200 -79.5750 79° East 519 597 37,000  Level Cleveland Center
Wed 07:03:50 PM 41.6494 -79.3883 78° East 514 592 37,000  Level Cleveland Center
Wed 07:04:50 PM 41.6744 -79.2014 80° East 509 586 37,000  Level Cleveland Center
Wed 07:05:50 PM 41.6783 -79.0153 88° East 502 578 37,000  Level Cleveland Center
Wed 07:06:50 PM 41.6778 -78.8289 90° East 496 571 37,000  Level Cleveland Center
Wed 07:07:50 PM 41.6850 -78.6425 87° East 496 571 37,000  Level Cleveland Center
Wed 07:08:50 PM 41.6861 -78.4589 89° East 496 571 37,000  Level Cleveland Center
Wed 07:09:50 PM 41.6844 -78.2725 91° East 496 571 37,000  Level Cleveland Center
Wed 07:11:17 PM 41.6864 -78.0069 89° East 502 578 37,000  Level New York Center
Wed 07:12:15 PM 41.6831 -77.8178 91° East 502 578 37,000  Level New York Center
Wed 07:13:16 PM 41.6842 -77.6233 89° East 512 589 37,000  Level New York Center
Wed 07:14:17 PM 41.6822 -77.4342 91° East 517 595 37,000  Level New York Center
Wed 07:15:17 PM 41.6800 -77.2478 91° East 517 595 37,000  Level New York Center
Wed 07:16:14 PM 41.6586 -77.0681 99° East 504 580 37,000  Level New York Center
Wed 07:17:15 PM 41.6142 -76.9194 112° Southeast 480 552 37,000  Level New York Center
Wed 07:18:16 PM 41.5725 -76.7603 109° East 475 547 37,000  Level New York Center
Wed 07:19:16 PM 41.5247 -76.5897 110° East 454 522 37,000 -446 Level New York Center
Wed 07:20:17 PM 41.4842 -76.4367 109° East 440 506 36,100 -756 Descending New York Center
Wed 07:21:15 PM 41.4414 -76.2836 110° East 440 506 35,500 -1,008 Descending New York Center
Wed 07:22:16 PM 41.4019 -76.1422 110° East 440 506 34,100 -1,200 Descending New York Center
Wed 07:23:15 PM 41.3586 -75.9922 111° Southeast 440 506 33,100 -1,966 Descending New York Center
Wed 07:24:15 PM 41.3150 -75.8453 112° Southeast 429 494 30,200 -5,008 Descending New York Center
Wed 07:25:16 PM 41.2678 -75.6814 111° Southeast 444 511 23,000 -2,182 Descending New York Center
Wed 07:26:16 PM 41.2181 -75.5233 113° Southeast 460 529 25,800 298 Climbing New York Center
Wed 07:27:17 PM 41.1656 -75.3736 115° Southeast 460 529 23,600 -1,400 Descending New York Center
Wed 07:28:16 PM 41.1153 -75.2217 114° Southeast 453 521 23,000 -300 Descending New York Center
Wed 07:29:17 PM 41.0722 -75.0922 114° Southeast 424 488 23,000  Level New York Center
Wed 07:30:17 PM 41.0286 -74.9711 115° Southeast 387 445 23,000  Level New York Center
Wed 07:31:15 PM 40.9933 -74.8453 110° East 363 418 23,000 -559 Level New York Center
Wed 07:32:15 PM 40.9772 -74.7094 99° East 363 418 21,900 -793 Descending New York Center
Wed 07:33:16 PM 40.9647 -74.5797 97° East 363 418 21,400 -885 Descending New York Center
Wed 07:34:17 PM 40.9519 -74.4553 98° East 348 400 20,100 -1,190 Descending New York Center
Wed 07:35:17 PM 40.9369 -74.3392 100° East 333 383 19,000 -559 Descending New York Center
Wed 07:36:15 PM 40.9219 -74.2067 98° East 328 377 19,000  Level New York Center
Wed 07:37:15 PM 40.8897 -74.1033 112° Southeast 316 364 19,000  Level New York Center
Wed 07:38:17 PM 40.8233 -74.0947 174° South 224 258 19,000  Level New York Center
Wed 07:39:17 PM 40.7978 -74.1839 249° West 167 192 19,000  Level New York Center
Wed 07:40:14 PM 40.8306 -74.2733 296° West 216 249 19,000  Level New York Center
Wed 07:41:15 PM 40.8656 -74.3519 301° West 263 303 19,000  Level New York Center
Wed 07:42:15 PM 40.9214 -74.4372 311° West 283 326 19,000  Level New York Center
Wed 07:43:16 PM 41.0031 -74.4197 North 274 315 19,000  Level New York Center
Wed 07:44:15 PM 41.0281 -74.2889 76° East 261 300 19,000  Level New York Center
Wed 07:45:15 PM 40.9697 -74.2144 136° Southeast 273 314 19,000  Level New York Center
Wed 07:46:16 PM 40.8883 -74.1444 147° Southeast 288 331 19,000  Level New York Center
Wed 07:47:16 PM 40.8103 -74.1078 160° South 304 350 19,000  Level New York Center
Wed 07:48:09 PM 40.7833 -74.1833 245° Southwest 299 344 19,000  Level New York TRACON
Wed 07:49:15 PM 40.8167 -74.3000 291° West 307 353 19,000  Level New York TRACON
Wed 07:50:15 PM 40.8500 -74.4000 294° West 316 364 19,000  Level New York TRACON
Wed 07:51:09 PM 40.9167 -74.4667 323° Northwest 344 396 19,000  Level New York TRACON
Wed 07:52:09 PM 41.0000 -74.5167 336° Northwest 356 410 19,000  Level New York TRACON
Wed 07:53:14 PM 41.1094 -74.4806 14° North 354 407 19,000  Level New York Center
Wed 07:54:16 PM 41.1550 -74.3561 64° Northeast 319 367 19,000  Level New York Center
Wed 07:55:16 PM 41.1208 -74.2469 113° Southeast 284 327 19,000  Level New York Center
Wed 07:56:15 PM 41.0333 -74.2000 158° South 308 354 19,000  Level New York TRACON
Wed 07:57:15 PM 40.9667 -74.1500 150° Southeast 309 356 19,000  Level New York TRACON
Wed 07:58:16 PM 40.9000 -74.0833 143° Southeast 338 389 19,000 -800 Level New York TRACON
Wed 08:00:15 PM 40.8333 -73.8333 109° East 354 407 16,600 -1,200 Descending New York TRACON
Wed 08:01:16 PM 40.8000 -73.7167 111° Southeast 349 402 15,400 -1,091 Descending New York TRACON
Wed 08:02:16 PM 40.7667 -73.6000 111° Southeast 325 374 14,400 -1,059 Descending New York TRACON
Wed 08:03:15 PM 40.7500 -73.5000 102° East 308 354 13,300 -1,200 Descending New York TRACON
Wed 08:04:16 PM 40.7500 -73.3833 90° East 315 362 12,000 -1,046 Descending New York TRACON
Wed 08:06:00 PM 40.6757 -73.6507 250° West  Level Estimated
Wed 08:07:16 PM 40.7833 -73.0667 250° West 288 331 9,100  Level New York TRACON
Wed 08:08:16 PM 40.7500 -73.0833 201° Southwest 220 253 9,000 -700 Descending New York TRACON
Wed 08:09:16 PM 40.7667 -73.1667 285° West 221 254 7,700 -1,000 Descending New York TRACON
Wed 08:10:16 PM 40.7667 -73.2333 270° West 202 232 7,000 -350 Descending New York TRACON
Wed 08:11:16 PM 40.7667 -73.3000 270° West 194 223 7,000  Level New York TRACON
Wed 08:12:16 PM 40.7167 -73.3500 217° Southwest 193 222 7,000  Level New York TRACON
Wed 08:14:16 PM 40.6167 -73.4167 207° Southwest 196 226 7,000  Level New York TRACON
Wed 08:15:16 PM 40.5833 -73.4500 217° Southwest 194 223 7,000  Level New York TRACON
Wed 08:17:00 PM 40.6310 -73.7273 283° West  Level Estimated
Wed 08:18:16 PM 40.4167 -73.5167 283° West 204 235 7,000  Level New York TRACON
Wed 08:19:16 PM 40.3667 -73.5333 194° South 214 246 7,000  Level New York TRACON

Login

Don't have an account? Register now (free) for customized features, flight alerts, and more!